createdAt,value
2022-12-27T00:00:21.065Z,-1.16
2022-12-27T00:03:28.549Z,-1.34
2022-12-27T00:06:34.588Z,-1.69
2022-12-27T00:09:40.959Z,-1.11
2022-12-27T00:12:46.909Z,-1.08
2022-12-27T00:15:53.186Z,-1.07
2022-12-27T00:19:01.015Z,-0.86
2022-12-27T00:22:07.060Z,-1.31
2022-12-27T00:25:13.687Z,-1.46
2022-12-27T00:28:20.068Z,-1.52
2022-12-27T00:31:27.729Z,-2.10
2022-12-27T00:34:35.599Z,-2.08
2022-12-27T00:37:42.049Z,-2.04
2022-12-27T00:40:49.358Z,-2.10
2022-12-27T00:43:55.268Z,-1.68
2022-12-27T00:47:01.389Z,-1.78
2022-12-27T00:50:09.981Z,-1.42
2022-12-27T00:53:16.668Z,-1.26
2022-12-27T00:56:25.076Z,-1.24
2022-12-27T00:59:31.471Z,-0.90
2022-12-27T01:02:37.643Z,-1.17
2022-12-27T01:05:45.555Z,-1.12
2022-12-27T01:08:52.196Z,-1.24
2022-12-27T01:11:58.701Z,-1.83
2022-12-27T01:15:06.592Z,-1.58
2022-12-27T01:18:12.843Z,-1.66
2022-12-27T01:21:23.015Z,-1.84
2022-12-27T01:24:29.567Z,-1.61
2022-12-27T01:27:35.859Z,-1.48
2022-12-27T01:30:42.306Z,-1.52
2022-12-27T01:33:48.833Z,-1.38
2022-12-27T01:36:56.159Z,-1.23
2022-12-27T01:40:02.214Z,-1.50
2022-12-27T01:43:16.743Z,-1.83
2022-12-27T01:46:23.662Z,-1.56
2022-12-27T01:49:30.399Z,-2.51
2022-12-27T01:52:42.237Z,-2.18
2022-12-27T01:55:52.226Z,-2.57
2022-12-27T01:59:03.328Z,-2.74
2022-12-27T02:02:09.768Z,-2.20
2022-12-27T02:05:17.711Z,-2.46
2022-12-27T02:08:42.679Z,-2.39
2022-12-27T02:11:52.915Z,-2.20
2022-12-27T02:15:02.365Z,-1.90
2022-12-27T02:18:08.961Z,-1.52
2022-12-27T02:21:41.460Z,-1.55
2022-12-27T02:25:15.298Z,-1.24
2022-12-27T02:28:35.142Z,-1.82
2022-12-27T02:31:49.412Z,-2.06
2022-12-27T02:35:05.373Z,-2.34
2022-12-27T02:38:16.796Z,-2.03
2022-12-27T02:41:40.572Z,-1.73
2022-12-27T02:45:12.882Z,-1.85
2022-12-27T02:48:37.569Z,-1.58
2022-12-27T02:52:12.719Z,-2.33
2022-12-27T02:55:35.818Z,-2.41
2022-12-27T02:58:55.879Z,-2.66
2022-12-27T03:02:40.309Z,-2.22
2022-12-27T03:06:22.824Z,-2.22
2022-12-27T03:09:59.898Z,-1.95
2022-12-27T03:13:51.828Z,-1.98
2022-12-27T03:17:07.075Z,-1.87
2022-12-27T03:20:34.714Z,-2.13
2022-12-27T03:24:02.050Z,-1.92
2022-12-27T03:27:18.329Z,-1.70
2022-12-27T03:30:42.136Z,-1.52
2022-12-27T03:33:50.729Z,-1.61
2022-12-27T03:37:16.032Z,-1.49
2022-12-27T03:40:34.758Z,-1.71
2022-12-27T03:43:40.766Z,-2.60
2022-12-27T03:46:47.831Z,-2.57
2022-12-27T03:50:04.491Z,-2.19
2022-12-27T03:53:17.164Z,-2.12
2022-12-27T03:56:25.108Z,-2.44
2022-12-27T03:59:31.869Z,-2.16
2022-12-27T04:02:38.294Z,-1.78
2022-12-27T04:05:44.518Z,-1.97
2022-12-27T04:09:08.523Z,-2.10
2022-12-27T04:12:33.385Z,-1.72
2022-12-27T04:15:57.394Z,-2.19
2022-12-27T04:19:21.381Z,-1.71
2022-12-27T04:22:44.950Z,-2.14
2022-12-27T04:26:08.806Z,-1.95
2022-12-27T04:29:33.343Z,-1.87
2022-12-27T04:32:57.023Z,-1.83
2022-12-27T04:36:06.421Z,-2.07
2022-12-27T04:39:12.849Z,-2.10
2022-12-27T04:42:36.777Z,-1.83
2022-12-27T04:46:01.947Z,-2.31
2022-12-27T04:49:30.486Z,-2.16
2022-12-27T04:52:54.452Z,-2.10
2022-12-27T04:56:00.561Z,-2.57
2022-12-27T04:59:24.556Z,-2.40
2022-12-27T05:02:32.346Z,-2.33
2022-12-27T05:05:40.374Z,-2.07
2022-12-27T05:09:04.306Z,-1.86
2022-12-27T05:12:29.036Z,-1.71
2022-12-27T05:15:34.923Z,-1.75
2022-12-27T05:18:42.602Z,-1.90
2022-12-27T05:22:03.117Z,-1.88
2022-12-27T05:25:30.007Z,-1.95
2022-12-27T05:28:35.855Z,-1.80
2022-12-27T05:31:42.242Z,-1.95
2022-12-27T05:34:49.907Z,-2.42
2022-12-27T05:37:56.309Z,-1.71
2022-12-27T05:41:03.855Z,-1.96
2022-12-27T05:44:09.977Z,-1.71
2022-12-27T05:47:16.465Z,-2.12
2022-12-27T05:50:24.199Z,-2.36
2022-12-27T05:53:30.102Z,-2.41
2022-12-27T05:56:37.457Z,-2.45
2022-12-27T05:59:43.604Z,-2.13
2022-12-27T06:02:50.225Z,-2.53
2022-12-27T06:06:02.962Z,-2.27
2022-12-27T06:09:08.830Z,-2.42
2022-12-27T06:12:14.979Z,-2.40
2022-12-27T06:15:21.299Z,-2.73
2022-12-27T06:18:27.355Z,-2.55
2022-12-27T06:21:35.624Z,-2.54
2022-12-27T06:24:41.589Z,-2.30
2022-12-27T06:27:47.681Z,-2.27
2022-12-27T06:30:53.556Z,-2.41
2022-12-27T06:33:59.508Z,-2.45
2022-12-27T06:37:07.158Z,-1.93
2022-12-27T06:40:13.608Z,-2.15
2022-12-27T06:43:19.561Z,-1.87
2022-12-27T06:46:26.365Z,-1.96
2022-12-27T06:49:32.665Z,-1.76
2022-12-27T06:52:40.457Z,-1.91
2022-12-27T06:55:46.528Z,-2.05
2022-12-27T06:58:53.117Z,-2.02
2022-12-27T07:01:59.391Z,-1.97
2022-12-27T07:05:06.652Z,-2.02
2022-12-27T07:08:14.158Z,-1.78
2022-12-27T07:11:22.419Z,-1.97
2022-12-27T07:14:28.746Z,-1.62
2022-12-27T07:17:36.195Z,-1.01
2022-12-27T07:20:42.506Z,-0.94
2022-12-27T07:23:50.452Z,-0.83
2022-12-27T07:26:56.716Z,-0.97
2022-12-27T07:30:03.039Z,-0.73
2022-12-27T07:33:09.404Z,0.05
2022-12-27T07:36:18.365Z,0.68
2022-12-27T07:39:25.693Z,0.57
2022-12-27T07:42:31.654Z,1.12
2022-12-27T07:45:38.130Z,1.05
2022-12-27T07:48:44.425Z,0.99
2022-12-27T07:51:50.339Z,1.42
2022-12-27T07:54:57.866Z,1.80
2022-12-27T07:58:04.046Z,2.01
2022-12-27T08:01:11.151Z,2.36
2022-12-27T08:04:17.490Z,2.54
2022-12-27T08:07:23.960Z,2.98
2022-12-27T08:10:31.572Z,3.31
2022-12-27T08:13:37.807Z,3.81
2022-12-27T08:16:43.981Z,3.73
2022-12-27T08:19:52.896Z,3.98
2022-12-27T08:22:59.154Z,4.23
2022-12-27T08:26:07.355Z,4.24
2022-12-27T08:29:13.545Z,4.40
2022-12-27T08:32:19.663Z,5.02
2022-12-27T08:35:52.682Z,5.57
2022-12-27T08:38:55.512Z,6.21
2022-12-27T08:42:03.495Z,6.15
2022-12-27T08:45:10.635Z,6.64
2022-12-27T08:48:17.792Z,6.49
2022-12-27T08:51:34.465Z,6.52
2022-12-27T08:54:45.295Z,6.71
2022-12-27T08:57:57.000Z,6.66
2022-12-27T09:01:07.404Z,7.20
2022-12-27T09:04:13.690Z,7.78
2022-12-27T09:07:20.000Z,7.87
2022-12-27T09:10:26.560Z,7.66
2022-12-27T09:13:34.431Z,7.97
2022-12-27T09:16:40.965Z,11.46
2022-12-27T09:19:47.406Z,12.10
2022-12-27T09:22:53.640Z,12.62
2022-12-27T09:26:00.113Z,12.51
2022-12-27T09:29:08.226Z,12.88
2022-12-27T09:32:14.669Z,12.89
2022-12-27T09:35:21.167Z,13.40
2022-12-27T09:38:27.326Z,13.39
2022-12-27T09:42:45.001Z,13.61
2022-12-27T09:45:17.315Z,13.66
2022-12-27T09:48:32.995Z,13.33
2022-12-27T09:51:48.257Z,13.83
2022-12-27T09:55:04.717Z,13.66
2022-12-27T09:58:25.326Z,13.94
2022-12-27T10:01:35.314Z,14.30
2022-12-27T10:05:17.937Z,14.32
2022-12-27T10:08:27.332Z,14.19
2022-12-27T10:11:45.260Z,14.58
2022-12-27T10:15:04.534Z,14.62
2022-12-27T10:18:23.715Z,14.44
2022-12-27T10:21:33.666Z,14.41
2022-12-27T10:24:42.562Z,14.41
2022-12-27T10:27:49.256Z,14.64
2022-12-27T10:30:55.419Z,14.82
2022-12-27T10:34:07.593Z,14.75
2022-12-27T10:37:17.824Z,14.94
2022-12-27T10:40:34.204Z,15.14
2022-12-27T10:43:43.779Z,14.70
2022-12-27T10:46:54.128Z,14.88
2022-12-27T10:50:13.732Z,15.15
2022-12-27T10:53:36.018Z,15.12
2022-12-27T10:56:44.419Z,15.12
2022-12-27T11:00:15.031Z,15.02
2022-12-27T11:03:21.687Z,15.22
2022-12-27T11:06:29.217Z,15.18
2022-12-27T11:09:37.376Z,15.27
2022-12-27T11:12:57.087Z,15.15
2022-12-27T11:16:03.455Z,15.01
2022-12-27T11:19:23.738Z,15.16
2022-12-27T11:22:31.505Z,15.00
2022-12-27T11:25:48.026Z,15.15
2022-12-27T11:28:57.219Z,15.26
2022-12-27T11:32:08.704Z,15.25
2022-12-27T11:35:19.596Z,15.37
2022-12-27T11:38:30.699Z,15.29
2022-12-27T11:41:44.293Z,15.29
2022-12-27T11:45:01.939Z,15.39
2022-12-27T11:48:19.822Z,15.32
2022-12-27T11:52:01.928Z,15.38
2022-12-27T11:55:46.879Z,15.39
2022-12-27T11:59:32.150Z,15.36
2022-12-27T12:03:26.972Z,15.53
2022-12-27T12:06:45.393Z,15.31
2022-12-27T12:10:08.466Z,15.28
2022-12-27T12:13:47.426Z,15.18
2022-12-27T12:17:11.872Z,15.22
2022-12-27T12:20:45.634Z,15.39
2022-12-27T12:24:27.944Z,15.37
2022-12-27T12:27:54.737Z,15.27
2022-12-27T12:31:15.501Z,15.35
2022-12-27T12:34:39.484Z,15.32
2022-12-27T12:38:03.591Z,15.26
2022-12-27T12:41:27.046Z,15.31
2022-12-27T12:45:16.762Z,15.11
2022-12-27T12:48:50.665Z,15.23
2022-12-27T12:52:11.710Z,15.28
2022-12-27T12:55:39.839Z,15.20
2022-12-27T12:59:02.306Z,15.24
2022-12-27T13:02:35.373Z,15.13
2022-12-27T13:05:49.171Z,15.30
2022-12-27T13:09:04.622Z,15.07
2022-12-27T13:12:15.308Z,15.25
2022-12-27T13:15:30.540Z,15.07
2022-12-27T13:18:50.300Z,14.85
2022-12-27T13:22:09.742Z,15.08
2022-12-27T13:25:25.576Z,15.28
2022-12-27T13:28:43.045Z,15.02
2022-12-27T13:31:59.366Z,15.14
2022-12-27T13:35:24.081Z,14.83
2022-12-27T13:38:43.604Z,14.91
2022-12-27T13:42:00.960Z,14.24
2022-12-27T13:45:23.248Z,13.55
2022-12-27T13:48:57.867Z,13.39
2022-12-27T13:52:18.172Z,13.30
2022-12-27T13:55:54.612Z,13.06
2022-12-27T13:59:28.087Z,13.01
2022-12-27T14:03:11.083Z,12.87
2022-12-27T14:06:51.670Z,12.61
2022-12-27T14:10:12.401Z,12.73
2022-12-27T14:13:25.761Z,12.53
2022-12-27T14:16:45.176Z,12.33
2022-12-27T14:20:18.214Z,11.99
2022-12-27T14:23:49.260Z,11.70
2022-12-27T14:27:43.281Z,11.63
2022-12-27T14:31:31.622Z,11.48
2022-12-27T14:35:17.399Z,11.50
2022-12-27T14:39:01.989Z,11.58
2022-12-27T14:42:37.544Z,11.62
2022-12-27T14:46:32.738Z,11.44
2022-12-27T14:50:25.799Z,11.63
2022-12-27T14:54:06.939Z,11.49
2022-12-27T14:57:26.214Z,11.56
2022-12-27T15:01:06.611Z,11.59
2022-12-27T15:04:38.692Z,11.52
2022-12-27T15:08:08.917Z,11.56
2022-12-27T15:11:28.450Z,11.55
2022-12-27T15:14:50.343Z,11.64
2022-12-27T15:18:10.525Z,11.50
2022-12-27T15:21:39.885Z,11.48
2022-12-27T15:24:59.666Z,11.36
2022-12-27T15:28:17.406Z,11.30
2022-12-27T15:31:33.014Z,11.27
2022-12-27T15:34:51.040Z,11.12
2022-12-27T15:38:11.855Z,10.86
2022-12-27T15:41:52.139Z,10.25
2022-12-27T15:45:05.702Z,9.37
2022-12-27T15:48:59.575Z,9.04
2022-12-27T15:52:14.859Z,8.74
2022-12-27T15:55:33.746Z,8.72
2022-12-27T15:58:42.316Z,8.29
2022-12-27T16:01:50.409Z,8.56
2022-12-27T16:04:59.098Z,8.25
2022-12-27T16:08:32.011Z,8.43
2022-12-27T16:12:00.756Z,8.23
2022-12-27T16:15:41.216Z,8.20
2022-12-27T16:19:19.355Z,8.17
2022-12-27T16:22:34.028Z,7.97
2022-12-27T16:25:42.468Z,7.72
2022-12-27T16:28:55.598Z,7.80
2022-12-27T16:32:20.759Z,7.54
2022-12-27T16:35:30.349Z,7.62
2022-12-27T16:38:39.687Z,7.46
2022-12-27T16:42:07.282Z,7.31
2022-12-27T16:45:34.920Z,7.23
2022-12-27T16:49:00.065Z,7.25
2022-12-27T16:52:34.764Z,7.01
2022-12-27T16:56:03.907Z,7.09
2022-12-27T16:59:43.637Z,6.92
2022-12-27T17:02:50.365Z,7.27
2022-12-27T17:06:30.795Z,7.07
2022-12-27T17:09:45.242Z,6.79
2022-12-27T17:12:54.981Z,6.94
2022-12-27T17:16:08.819Z,6.58
2022-12-27T17:19:21.164Z,6.33
2022-12-27T17:22:34.574Z,6.28
2022-12-27T17:25:49.263Z,6.33
2022-12-27T17:29:06.011Z,6.20
2022-12-27T17:32:26.253Z,6.09
2022-12-27T17:35:40.039Z,6.22
2022-12-27T17:39:04.442Z,6.33
2022-12-27T17:42:39.443Z,6.11
2022-12-27T17:45:51.824Z,6.17
2022-12-27T17:48:59.220Z,6.00
2022-12-27T17:52:23.302Z,5.95
2022-12-27T17:55:48.387Z,5.77
2022-12-27T17:59:03.609Z,5.79
2022-12-27T18:02:18.213Z,5.63
2022-12-27T18:05:29.006Z,5.68
2022-12-27T18:08:36.238Z,5.48
2022-12-27T18:11:44.394Z,5.27
2022-12-27T18:14:56.921Z,5.37
2022-12-27T18:18:05.480Z,5.15
2022-12-27T18:21:23.516Z,5.24
2022-12-27T18:24:32.284Z,4.93
2022-12-27T18:27:40.351Z,4.58
2022-12-27T18:30:52.599Z,4.84
2022-12-27T18:34:03.499Z,4.90
2022-12-27T18:37:12.974Z,4.73
2022-12-27T18:40:21.623Z,4.83
2022-12-27T18:43:29.991Z,4.57
2022-12-27T18:46:39.420Z,4.31
2022-12-27T18:49:46.456Z,4.34
2022-12-27T18:53:03.343Z,4.22
2022-12-27T18:56:27.184Z,4.70
2022-12-27T18:59:36.363Z,4.68
2022-12-27T19:02:43.616Z,4.44
2022-12-27T19:06:14.268Z,4.45
2022-12-27T19:09:22.425Z,4.38
2022-12-27T19:12:34.603Z,4.24
2022-12-27T19:15:45.294Z,3.87
2022-12-27T19:18:54.632Z,3.69
2022-12-27T19:22:01.192Z,3.75
2022-12-27T19:25:21.838Z,3.87
2022-12-27T19:28:29.944Z,3.81
2022-12-27T19:31:41.355Z,3.96
2022-12-27T19:34:50.306Z,3.98
2022-12-27T19:37:57.419Z,3.67
2022-12-27T19:41:05.009Z,3.74
2022-12-27T19:44:12.736Z,3.77
2022-12-27T19:47:20.254Z,3.87
2022-12-27T19:50:26.704Z,3.87
2022-12-27T19:53:35.949Z,3.88
2022-12-27T19:56:42.099Z,3.88
2022-12-27T19:59:48.737Z,3.85
2022-12-27T20:02:56.329Z,3.91
2022-12-27T20:06:14.194Z,3.97
2022-12-27T20:09:27.344Z,3.77
2022-12-27T20:12:33.631Z,3.61
2022-12-27T20:15:40.165Z,3.68
2022-12-27T20:18:48.143Z,3.46
2022-12-27T20:21:54.515Z,3.48
2022-12-27T20:25:01.077Z,3.52
2022-12-27T20:28:07.272Z,3.24
2022-12-27T20:31:15.870Z,3.38
2022-12-27T20:34:23.859Z,3.15
2022-12-27T20:37:29.993Z,3.31
2022-12-27T20:40:36.047Z,3.24
2022-12-27T20:43:42.635Z,2.97
2022-12-27T20:46:50.041Z,2.72
2022-12-27T20:49:57.471Z,2.88
2022-12-27T20:53:03.874Z,2.83
2022-12-27T20:56:11.162Z,2.86
2022-12-27T20:59:17.237Z,2.97
2022-12-27T21:02:23.793Z,3.18
2022-12-27T21:05:31.453Z,2.88
2022-12-27T21:08:45.479Z,2.94
2022-12-27T21:11:53.958Z,3.02
2022-12-27T21:15:00.246Z,2.64
2022-12-27T21:18:07.533Z,2.89
2022-12-27T21:21:19.616Z,2.50
2022-12-27T21:24:26.403Z,2.19
2022-12-27T21:27:32.595Z,2.28
2022-12-27T21:30:38.797Z,2.41
2022-12-27T21:33:45.150Z,2.61
2022-12-27T21:36:53.254Z,2.64
2022-12-27T21:39:59.588Z,2.35
2022-12-27T21:43:05.702Z,2.02
2022-12-27T21:46:15.635Z,1.92
2022-12-27T21:49:22.023Z,2.17
2022-12-27T21:52:30.143Z,2.30
2022-12-27T21:55:36.225Z,2.19
2022-12-27T21:58:43.563Z,2.23
2022-12-27T22:01:51.478Z,2.40
2022-12-27T22:04:58.761Z,1.91
2022-12-27T22:08:06.841Z,1.88
2022-12-27T22:11:13.978Z,1.54
2022-12-27T22:14:25.255Z,1.83
2022-12-27T22:17:31.836Z,1.71
2022-12-27T22:20:41.999Z,1.14
2022-12-27T22:23:55.860Z,1.45
2022-12-27T22:27:02.010Z,2.05
2022-12-27T22:30:08.801Z,1.77
2022-12-27T22:33:16.426Z,2.01
2022-12-27T22:36:25.043Z,1.90
2022-12-27T22:39:32.754Z,2.02
2022-12-27T22:42:39.059Z,2.02
2022-12-27T22:45:50.309Z,1.85
2022-12-27T22:49:01.276Z,1.88
2022-12-27T22:52:07.567Z,2.06
2022-12-27T22:55:16.319Z,2.15
2022-12-27T22:58:22.824Z,1.91
2022-12-27T23:01:31.013Z,2.06
2022-12-27T23:04:37.383Z,1.90
2022-12-27T23:08:06.057Z,2.02
2022-12-27T23:11:14.602Z,2.09
2022-12-27T23:14:21.134Z,1.74
2022-12-27T23:17:27.295Z,1.00
2022-12-27T23:20:35.296Z,0.47
2022-12-27T23:23:42.115Z,0.65
2022-12-27T23:26:49.713Z,1.08
2022-12-27T23:29:56.075Z,1.30
2022-12-27T23:33:02.419Z,1.44
2022-12-27T23:36:09.144Z,1.60
2022-12-27T23:39:15.344Z,1.73
2022-12-27T23:42:23.223Z,1.64
2022-12-27T23:45:29.547Z,1.62
2022-12-27T23:48:36.179Z,1.90
2022-12-27T23:51:42.634Z,1.79
2022-12-27T23:54:48.607Z,1.55
2022-12-27T23:57:56.139Z,1.58
